Time;durP1;ratioP1;P1;durP2;ratioP2;P2;SDS_P1;SDS_P2;PMS_P1;PMS_P2;Temp;Humidity;BMP_temperature;BMP_pressure;BME280_temperature;BME280_humidity;BME280_pressure;Samples;Min_cycle;Max_cycle;Signal;HPM_P1;HPM_P2
2021/11/20 00:01:17;;;;;;;6.53;4.68;;;10.90;99.90;;;;;;6152782;23;20184;-80
2021/11/20 00:03:44;;;;;;;6.18;4.38;;;10.90;99.90;;;;;;6179850;23;20155;-79
2021/11/20 00:06:12;;;;;;;5.43;3.83;;;10.90;99.90;;;;;;6180047;23;20242;-78
2021/11/20 00:08:38;;;;;;;4.13;3.50;;;10.80;99.90;;;;;;6179628;23;20163;-80
2021/11/20 00:11:07;;;;;;;5.30;4.13;;;10.90;99.90;;;;;;6152622;23;20179;-80
2021/11/20 00:13:33;;;;;;;5.33;3.70;;;10.90;99.90;;;;;;6179052;23;20182;-79
2021/11/20 00:16:01;;;;;;;7.43;4.18;;;10.80;99.90;;;;;;6152501;23;20170;-80
2021/11/20 00:18:30;;;;;;;5.00;3.97;;;10.80;99.90;;;;;;6179000;23;20201;-79
2021/11/20 00:20:58;;;;;;;7.10;4.67;;;10.90;99.90;;;;;;6152538;23;20205;-79
2021/11/20 00:23:34;;;;;;;6.37;3.83;;;10.90;99.90;;;;;;6178767;23;20151;-79
2021/11/20 00:26:01;;;;;;;5.80;4.22;;;10.90;99.90;;;;;;6179117;23;20147;-81
2021/11/20 00:28:53;;;;;;;4.80;3.70;;;10.90;99.90;;;;;;6179074;23;20482;-78
2021/11/20 00:31:20;;;;;;;6.10;3.97;;;10.90;99.90;;;;;;6152036;23;20179;-81
2021/11/20 00:33:46;;;;;;;4.83;3.87;;;10.90;99.90;;;;;;6178694;23;20518;-79
2021/11/20 00:36:13;;;;;;;6.13;4.00;;;10.80;99.90;;;;;;6178649;23;20158;-80
2021/11/20 00:38:40;;;;;;;10.73;4.90;;;10.80;99.90;;;;;;6178815;23;20210;-78
2021/11/20 00:41:11;;;;;;;5.97;4.20;;;10.80;99.90;;;;;;6152269;23;20179;-79
2021/11/20 00:43:38;;;;;;;5.97;4.40;;;10.80;99.90;;;;;;6178767;23;20142;-79
2021/11/20 00:46:04;;;;;;;6.43;4.60;;;10.80;99.90;;;;;;6178600;23;20600;-81
2021/11/20 00:48:30;;;;;;;6.47;4.13;;;10.80;99.90;;;;;;6152624;23;20633;-79
2021/11/20 00:51:01;;;;;;;5.77;4.17;;;10.80;99.90;;;;;;6152617;23;20187;-79
2021/11/20 00:53:28;;;;;;;6.23;4.33;;;10.80;99.90;;;;;;6178946;23;20500;-80
2021/11/20 00:55:54;;;;;;;5.90;4.67;;;10.70;99.90;;;;;;6179133;23;20209;-78
2021/11/20 00:58:21;;;;;;;4.13;3.73;;;10.70;99.90;;;;;;6152258;23;20634;-78
2021/11/20 01:00:50;;;;;;;6.83;3.73;;;10.80;99.90;;;;;;6178370;23;20175;-78
2021/11/20 01:03:16;;;;;;;4.70;3.78;;;10.80;99.90;;;;;;6151691;23;20952;-80
2021/11/20 01:05:42;;;;;;;5.70;3.90;;;10.70;99.90;;;;;;6178023;23;20646;-78
2021/11/20 01:08:10;;;;;;;6.82;4.05;;;10.70;99.90;;;;;;6178446;23;20231;-80
2021/11/20 01:10:39;;;;;;;4.67;4.00;;;10.70;99.90;;;;;;6151954;23;20764;-80
2021/11/20 01:13:06;;;;;;;6.07;4.40;;;10.70;99.90;;;;;;6178016;23;20626;-78
2021/11/20 01:15:43;;;;;;;8.57;4.63;;;10.70;99.90;;;;;;6178140;23;20316;-81
2021/11/20 01:18:09;;;;;;;7.10;3.97;;;10.70;99.90;;;;;;6178372;23;20143;-78
2021/11/20 01:20:36;;;;;;;7.70;3.90;;;10.70;99.90;;;;;;6178209;23;20197;-79
2021/11/20 01:23:02;;;;;;;5.20;4.27;;;10.70;99.90;;;;;;6151894;23;20642;-80
2021/11/20 01:25:29;;;;;;;8.70;4.67;;;10.70;99.90;;;;;;6178600;23;20159;-78
2021/11/20 01:27:54;;;;;;;5.00;3.90;;;10.70;99.90;;;;;;6151634;23;20167;-77
2021/11/20 01:30:20;;;;;;;4.30;3.60;;;10.80;99.90;;;;;;6151268;23;20265;-79
2021/11/20 01:32:47;;;;;;;4.60;3.67;;;10.70;99.90;;;;;;6178122;23;20183;-79
2021/11/20 01:35:13;;;;;;;7.37;4.23;;;10.70;99.90;;;;;;6178534;23;20162;-78
2021/11/20 01:37:40;;;;;;;5.97;3.45;;;10.70;99.90;;;;;;6151189;23;20170;-78
2021/11/20 01:40:13;;;;;;;5.07;3.70;;;10.70;99.90;;;;;;6151486;23;20182;-79
2021/11/20 01:42:39;;;;;;;6.13;3.60;;;10.70;99.90;;;;;;6177721;23;20163;-78
2021/11/20 01:45:15;;;;;;;4.13;3.13;;;10.60;99.90;;;;;;6177755;23;20154;-78
2021/11/20 01:47:54;;;;;;;4.23;3.50;;;10.60;99.90;;;;;;6177556;23;20627;-77
2021/11/20 01:50:33;;;;;;;7.40;4.17;;;10.60;99.90;;;;;;6151310;23;20189;-78
2021/11/20 01:53:08;;;;;;;4.80;3.67;;;10.70;99.90;;;;;;6177775;23;20171;-79
2021/11/20 01:55:43;;;;;;;5.87;3.87;;;10.70;99.90;;;;;;6150950;23;20146;-78
2021/11/20 01:58:25;;;;;;;5.32;4.00;;;10.60;99.90;;;;;;6151514;23;20500;-79
2021/11/20 02:01:03;;;;;;;5.83;4.33;;;10.70;99.90;;;;;;6177578;23;20174;-81
2021/11/20 02:04:01;;;;;;;5.03;4.53;;;10.60;99.90;;;;;;6152048;23;20246;-80
2021/11/20 02:06:33;;;;;;;7.67;5.33;;;10.70;99.90;;;;;;6126102;23;20167;-81
2021/11/20 02:08:59;;;;;;;6.80;5.00;;;10.70;99.90;;;;;;6177890;23;21102;-79
2021/11/20 02:11:33;;;;;;;7.57;5.00;;;10.80;99.90;;;;;;6151456;23;20183;-79
2021/11/20 02:13:59;;;;;;;6.95;5.30;;;10.70;99.90;;;;;;6177892;23;20147;-78
2021/11/20 02:16:35;;;;;;;8.73;4.60;;;10.70;99.90;;;;;;6151898;23;20662;-79
2021/11/20 02:19:04;;;;;;;5.60;5.10;;;10.70;99.90;;;;;;6177343;23;20875;-79
2021/11/20 02:21:50;;;;;;;7.23;5.33;;;10.80;99.90;;;;;;6177620;23;20224;-77
2021/11/20 02:24:15;;;;;;;6.57;5.13;;;10.70;99.90;;;;;;6151927;23;20270;-79
2021/11/20 02:26:41;;;;;;;7.27;5.73;;;10.60;99.90;;;;;;6151268;23;20198;-79
2021/11/20 02:29:10;;;;;;;6.70;5.60;;;10.70;99.90;;;;;;6178059;23;20151;-78
2021/11/20 02:31:57;;;;;;;8.03;5.70;;;10.70;99.90;;;;;;6178070;23;20193;-79
2021/11/20 02:34:24;;;;;;;9.13;5.80;;;10.70;99.90;;;;;;6150388;23;20820;-77
2021/11/20 02:36:50;;;;;;;9.27;5.77;;;10.60;99.90;;;;;;6177494;23;20158;-76
2021/11/20 02:39:21;;;;;;;6.88;5.55;;;10.60;99.90;;;;;;6151126;23;20595;-78
2021/11/20 02:41:51;;;;;;;8.70;5.50;;;10.60;99.90;;;;;;6151223;23;20202;-78
2021/11/20 02:44:19;;;;;;;7.40;5.50;;;10.70;99.90;;;;;;6177764;23;20139;-80
2021/11/20 02:46:52;;;;;;;9.23;6.27;;;10.70;99.90;;;;;;6178392;23;20147;-79
2021/11/20 02:49:18;;;;;;;8.50;6.13;;;10.60;99.90;;;;;;6152894;23;20242;-77
2021/11/20 02:51:52;;;;;;;7.35;6.00;;;10.70;99.90;;;;;;6153100;23;20159;-78
2021/11/20 02:54:22;;;;;;;8.57;6.13;;;10.60;99.90;;;;;;6179206;23;20238;-80
2021/11/20 02:56:52;;;;;;;8.13;6.40;;;10.60;99.90;;;;;;6153189;23;20187;-79
2021/11/20 02:59:18;;;;;;;7.33;6.17;;;10.60;99.90;;;;;;6152299;23;20151;-80
2021/11/20 03:01:45;;;;;;;7.60;6.33;;;10.70;99.90;;;;;;6153253;23;20182;-79
2021/11/20 03:04:13;;;;;;;7.90;6.60;;;10.70;99.90;;;;;;6178583;23;20607;-79
2021/11/20 03:06:39;;;;;;;8.77;6.70;;;10.60;99.90;;;;;;6152395;23;20163;-79
2021/11/20 03:09:08;;;;;;;9.13;6.80;;;10.60;99.90;;;;;;6178956;23;20163;-78
2021/11/20 03:11:34;;;;;;;8.27;6.97;;;10.60;99.90;;;;;;6178330;23;20175;-79
2021/11/20 03:14:05;;;;;;;13.00;7.03;;;10.60;99.90;;;;;;6153076;23;20247;-80
2021/11/20 03:16:52;;;;;;;11.67;7.10;;;10.60;99.90;;;;;;6153071;23;20231;-81
2021/11/20 03:19:20;;;;;;;11.40;7.37;;;10.60;99.90;;;;;;6179092;23;20135;-79
2021/11/20 03:21:50;;;;;;;9.13;7.47;;;10.70;99.90;;;;;;6153169;23;20245;-81
2021/11/20 03:24:18;;;;;;;11.40;7.17;;;10.60;99.90;;;;;;6153352;23;20151;-80
2021/11/20 03:26:45;;;;;;;13.00;7.43;;;10.70;99.90;;;;;;6153151;23;20166;-78
2021/11/20 03:29:11;;;;;;;8.80;6.40;;;10.70;99.90;;;;;;6179239;23;20155;-81
2021/11/20 03:31:37;;;;;;;8.83;6.40;;;10.70;99.90;;;;;;6153045;23;20587;-81
2021/11/20 03:34:04;;;;;;;9.57;6.90;;;10.70;99.90;;;;;;6179449;23;20183;-78
2021/11/20 03:36:31;;;;;;;11.77;6.23;;;10.60;99.90;;;;;;6179070;23;20178;-81
2021/11/20 03:38:57;;;;;;;9.40;6.23;;;10.60;99.90;;;;;;6152151;23;20246;-78
2021/11/20 03:41:23;;;;;;;10.93;6.80;;;10.70;99.90;;;;;;6152466;23;20175;-78
2021/11/20 03:43:49;;;;;;;11.07;7.07;;;10.70;99.90;;;;;;6178883;23;20182;-81
2021/11/20 03:46:14;;;;;;;7.90;6.37;;;10.60;99.90;;;;;;6152759;23;20163;-79
2021/11/20 03:48:40;;;;;;;8.50;6.40;;;10.60;99.90;;;;;;6178945;23;20170;-79
2021/11/20 03:51:06;;;;;;;8.27;6.60;;;10.60;99.90;;;;;;6152764;23;20217;-80
2021/11/20 03:53:32;;;;;;;7.43;6.57;;;10.60;99.90;;;;;;6152592;23;20191;-78
2021/11/20 03:55:57;;;;;;;8.20;5.97;;;10.60;99.90;;;;;;6153061;23;20665;-80
2021/11/20 03:58:23;;;;;;;10.27;5.80;;;10.50;99.90;;;;;;6178980;23;20171;-79
2021/11/20 04:00:57;;;;;;;9.70;6.63;;;10.50;99.90;;;;;;6179519;23;20198;-80
2021/11/20 04:03:23;;;;;;;8.73;6.53;;;10.50;99.90;;;;;;6152529;23;20167;-79
2021/11/20 04:05:51;;;;;;;8.63;6.20;;;10.50;99.90;;;;;;6179739;23;20151;-80
2021/11/20 04:08:17;;;;;;;8.67;6.00;;;10.50;99.90;;;;;;6179599;23;20187;-79
2021/11/20 04:10:47;;;;;;;8.35;6.13;;;10.60;99.90;;;;;;6178924;23;20217;-80
2021/11/20 04:13:13;;;;;;;8.83;6.97;;;10.50;99.90;;;;;;6179139;23;21049;-80
2021/11/20 04:15:39;;;;;;;7.50;6.30;;;10.50;99.90;;;;;;6152735;23;20159;-80
2021/11/20 04:18:05;;;;;;;6.83;6.13;;;10.50;99.90;;;;;;6178435;23;20718;-79
2021/11/20 04:20:31;;;;;;;10.83;6.87;;;10.50;99.90;;;;;;6178770;23;20171;-80
2021/11/20 04:22:57;;;;;;;8.67;6.30;;;10.50;99.90;;;;;;6152252;23;20233;-78
2021/11/20 04:25:24;;;;;;;10.40;6.80;;;10.50;99.90;;;;;;6152014;23;20163;-79
2021/11/20 04:27:49;;;;;;;9.13;6.07;;;10.40;99.90;;;;;;6178827;23;20473;-79
2021/11/20 04:30:16;;;;;;;7.60;6.20;;;10.50;99.90;;;;;;6178524;23;20174;-80
2021/11/20 04:32:43;;;;;;;7.23;5.97;;;10.50;99.90;;;;;;6179076;23;20183;-78
2021/11/20 04:35:10;;;;;;;9.13;6.03;;;10.50;99.90;;;;;;6152142;23;20681;-78
2021/11/20 04:37:36;;;;;;;8.00;5.67;;;10.50;99.90;;;;;;6152061;23;21090;-78
2021/11/20 04:40:04;;;;;;;8.07;5.60;;;10.50;99.90;;;;;;6152117;23;20179;-80
2021/11/20 04:42:30;;;;;;;9.37;6.10;;;10.50;99.90;;;;;;6178694;23;20159;-79
2021/11/20 04:44:56;;;;;;;8.20;5.67;;;10.50;99.90;;;;;;6178548;23;20223;-78
2021/11/20 04:47:21;;;;;;;7.93;5.30;;;10.40;99.90;;;;;;6178631;23;20169;-77
2021/11/20 04:49:47;;;;;;;6.83;5.27;;;10.50;99.90;;;;;;6178091;23;20182;-80
2021/11/20 04:52:13;;;;;;;6.70;5.30;;;10.50;99.90;;;;;;6151600;23;20182;-79
2021/11/20 04:54:40;;;;;;;8.93;6.00;;;10.40;99.90;;;;;;6178822;23;20185;-79
2021/11/20 04:57:05;;;;;;;8.40;5.43;;;10.50;99.90;;;;;;6178666;23;20151;-78
2021/11/20 04:59:31;;;;;;;9.03;5.93;;;10.50;99.90;;;;;;6178420;23;20158;-81
2021/11/20 05:01:58;;;;;;;8.90;5.90;;;10.50;99.90;;;;;;6151950;23;20174;-78
2021/11/20 05:04:24;;;;;;;9.20;5.73;;;10.50;99.90;;;;;;6152059;23;20221;-77
2021/11/20 05:06:49;;;;;;;8.90;5.60;;;10.60;99.90;;;;;;6178796;23;20151;-78
2021/11/20 05:09:15;;;;;;;7.87;5.37;;;10.60;99.90;;;;;;6151692;23;20207;-77
2021/11/20 05:11:43;;;;;;;11.90;6.90;;;10.50;99.90;;;;;;6177967;23;20584;-79
2021/11/20 05:14:09;;;;;;;9.47;5.60;;;10.50;99.90;;;;;;6178224;23;20229;-78
2021/11/20 05:16:38;;;;;;;8.20;5.80;;;10.50;99.90;;;;;;6152233;23;20607;-78
2021/11/20 05:19:06;;;;;;;6.93;5.40;;;10.50;99.90;;;;;;6178703;23;20595;-79
2021/11/20 05:21:33;;;;;;;11.20;5.43;;;10.50;99.90;;;;;;6151803;23;20210;-78
2021/11/20 05:23:59;;;;;;;6.90;4.87;;;10.50;99.90;;;;;;6152373;23;20625;-79
2021/11/20 05:26:26;;;;;;;9.13;4.97;;;10.50;99.90;;;;;;6178522;23;20225;-80
2021/11/20 05:29:01;;;;;;;10.80;5.72;;;10.50;99.90;;;;;;6151716;23;20249;-79
2021/11/20 05:31:27;;;;;;;7.57;4.77;;;10.60;99.90;;;;;;6151970;23;20178;-79
2021/11/20 05:33:54;;;;;;;5.33;4.83;;;10.60;99.90;;;;;;6177874;23;20217;-78
2021/11/20 05:36:22;;;;;;;6.43;4.80;;;10.50;99.90;;;;;;6177818;23;20620;-80
2021/11/20 05:38:47;;;;;;;5.03;4.40;;;10.50;99.90;;;;;;6151215;23;20154;-80
2021/11/20 05:41:13;;;;;;;5.53;4.07;;;10.50;99.90;;;;;;6177360;23;20254;-78
2021/11/20 05:43:39;;;;;;;7.37;4.10;;;10.50;99.90;;;;;;6151399;23;20591;-80
2021/11/20 05:46:10;;;;;;;4.80;3.87;;;10.50;99.90;;;;;;6153897;23;20603;-80
2021/11/20 05:48:35;;;;;;;7.30;4.70;;;10.50;99.90;;;;;;6177937;23;20139;-80
2021/11/20 05:51:01;;;;;;;6.27;4.37;;;10.50;99.90;;;;;;6149138;23;20574;-79
2021/11/20 05:53:27;;;;;;;7.27;4.73;;;10.60;99.90;;;;;;6150230;23;20499;-80
2021/11/20 05:55:55;;;;;;;5.43;4.07;;;10.50;99.90;;;;;;6151631;23;20210;-79
2021/11/20 05:58:21;;;;;;;6.50;3.73;;;10.50;99.90;;;;;;6178006;23;20233;-79
2021/11/20 06:00:51;;;;;;;5.20;3.70;;;10.50;99.90;;;;;;6179016;23;20691;-79
2021/11/20 06:03:19;;;;;;;5.53;4.20;;;10.50;99.90;;;;;;6152559;23;20190;-80
2021/11/20 06:05:45;;;;;;;7.30;4.37;;;10.50;99.90;;;;;;6178045;23;20205;-80
2021/11/20 06:08:12;;;;;;;6.17;4.53;;;10.50;99.90;;;;;;6178045;23;20195;-79
2021/11/20 06:10:40;;;;;;;7.10;3.90;;;10.40;99.90;;;;;;6177521;23;20602;-79
2021/11/20 06:13:07;;;;;;;4.40;3.87;;;10.50;99.90;;;;;;6151131;23;20622;-80
2021/11/20 06:15:33;;;;;;;6.17;4.00;;;10.40;99.90;;;;;;6177575;23;20167;-79
2021/11/20 06:17:58;;;;;;;6.27;4.27;;;10.40;99.90;;;;;;6177404;23;20526;-79
2021/11/20 06:20:24;;;;;;;8.00;4.80;;;10.50;99.90;;;;;;6177284;23;20171;-78
2021/11/20 06:22:50;;;;;;;5.77;4.43;;;10.40;99.90;;;;;;6179047;23;20227;-79
2021/11/20 06:25:15;;;;;;;6.70;4.50;;;10.40;99.90;;;;;;6180150;23;20162;-79
2021/11/20 06:27:41;;;;;;;5.77;4.50;;;10.50;99.90;;;;;;6180458;23;20217;-80
2021/11/20 06:30:13;;;;;;;7.53;4.73;;;10.50;99.90;;;;;;6153600;23;20193;-80
2021/11/20 06:32:40;;;;;;;5.80;4.77;;;10.40;99.90;;;;;;6181030;23;20595;-79
2021/11/20 06:35:10;;;;;;;5.93;4.90;;;10.50;99.90;;;;;;6181618;23;20649;-79
2021/11/20 06:37:37;;;;;;;6.27;5.03;;;10.40;99.90;;;;;;6154504;23;20201;-78
2021/11/20 06:40:04;;;;;;;7.40;4.90;;;10.40;99.90;;;;;;6181174;23;20175;-80
2021/11/20 06:42:30;;;;;;;8.83;5.20;;;10.40;99.90;;;;;;6181491;23;20158;-80
2021/11/20 06:44:55;;;;;;;9.40;5.37;;;10.40;99.90;;;;;;6181163;23;20158;-78
2021/11/20 06:47:21;;;;;;;6.47;5.60;;;10.30;99.90;;;;;;6155229;23;20302;-80
2021/11/20 06:49:47;;;;;;;8.43;5.57;;;10.40;99.90;;;;;;6180571;23;20174;-80
2021/11/20 06:52:12;;;;;;;7.20;5.80;;;10.40;99.90;;;;;;6155797;23;20598;-81
2021/11/20 06:54:38;;;;;;;6.90;5.73;;;10.40;99.90;;;;;;6155555;23;20190;-78
2021/11/20 06:57:05;;;;;;;9.23;6.40;;;10.30;99.90;;;;;;6181805;23;20151;-79
2021/11/20 07:02:23;;;;;;;9.00;6.50;;;10.40;99.90;;;;;;6184304;23;20146;-80
2021/11/20 07:04:49;;;;;;;11.17;6.43;;;10.50;99.90;;;;;;6155131;23;20173;-78
2021/11/20 07:07:14;;;;;;;12.10;6.77;;;10.50;99.90;;;;;;6180638;23;20237;-79
2021/11/20 07:09:41;;;;;;;10.20;6.03;;;10.40;99.90;;;;;;6180868;23;20202;-78
2021/11/20 07:12:07;;;;;;;8.43;6.53;;;10.40;99.90;;;;;;6182022;23;20197;-80
2021/11/20 07:14:33;;;;;;;9.07;6.60;;;10.40;99.90;;;;;;6155736;23;20205;-78
2021/11/20 07:16:59;;;;;;;7.87;6.20;;;10.40;99.90;;;;;;6183230;23;20148;-79
2021/11/20 07:19:24;;;;;;;8.33;6.40;;;10.40;99.90;;;;;;6154865;23;20630;-78
2021/11/20 07:21:50;;;;;;;12.17;6.30;;;10.40;99.90;;;;;;6155464;23;20159;-78
2021/11/20 07:24:19;;;;;;;9.93;6.50;;;10.50;99.90;;;;;;6181904;23;20498;-80
2021/11/20 07:26:46;;;;;;;8.07;5.87;;;10.40;99.90;;;;;;6181364;23;20157;-78
2021/11/20 07:29:13;;;;;;;10.53;6.20;;;10.50;99.90;;;;;;6153935;23;20234;-78
2021/11/20 07:31:38;;;;;;;9.73;6.70;;;10.50;99.90;;;;;;6154890;23;20162;-80
2021/11/20 07:34:05;;;;;;;10.63;6.50;;;10.50;99.90;;;;;;6153855;23;20171;-79
2021/11/20 07:36:35;;;;;;;7.97;6.47;;;10.60;99.90;;;;;;6153160;23;20764;-77
2021/11/20 07:39:03;;;;;;;9.43;6.50;;;10.60;99.90;;;;;;6180200;23;20165;-77
2021/11/20 07:41:29;;;;;;;11.53;7.60;;;10.60;99.90;;;;;;6153149;23;20183;-80
2021/11/20 07:43:56;;;;;;;10.37;7.47;;;10.60;99.90;;;;;;6153447;23;20587;-78
2021/11/20 07:46:22;;;;;;;12.23;7.57;;;10.60;99.90;;;;;;6179994;23;20673;-79
2021/11/20 07:48:48;;;;;;;9.57;7.00;;;10.50;99.90;;;;;;6178477;23;20198;-81
2021/11/20 07:51:15;;;;;;;11.40;7.80;;;10.60;99.90;;;;;;6148249;23;20274;-80
2021/11/20 07:53:44;;;;;;;10.10;6.53;;;10.60;99.90;;;;;;6175478;23;20237;-80
2021/11/20 07:56:11;;;;;;;9.40;7.70;;;10.70;99.90;;;;;;6151399;23;20163;-78
2021/11/20 07:58:39;;;;;;;9.57;6.93;;;10.70;99.90;;;;;;6151229;23;20210;-80
2021/11/20 08:01:05;;;;;;;10.30;7.43;;;10.70;99.90;;;;;;6147061;23;21039;-80
2021/11/20 08:03:31;;;;;;;12.37;8.47;;;10.80;99.90;;;;;;6175696;23;20599;-80
2021/11/20 08:05:58;;;;;;;12.37;8.50;;;10.70;99.90;;;;;;6178143;23;20238;-80
2021/11/20 08:08:23;;;;;;;11.17;7.33;;;10.70;99.90;;;;;;6177436;23;20162;-81
2021/11/20 08:10:50;;;;;;;11.32;7.82;;;10.70;99.90;;;;;;6174210;23;20190;-78
2021/11/20 08:13:17;;;;;;;10.53;8.20;;;10.80;99.90;;;;;;6177870;23;20183;-81
2021/11/20 08:15:44;;;;;;;13.00;8.47;;;10.70;99.90;;;;;;6151830;23;20170;-79
2021/11/20 08:18:10;;;;;;;9.83;7.90;;;10.80;99.90;;;;;;6175769;23;20155;-79
2021/11/20 08:20:40;;;;;;;10.30;8.33;;;10.80;99.90;;;;;;6178648;23;20190;-78
2021/11/20 08:23:09;;;;;;;12.07;8.57;;;10.90;99.90;;;;;;6152028;23;20193;-81
2021/11/20 08:25:38;;;;;;;11.18;8.02;;;10.90;99.90;;;;;;6152520;23;20250;-79
2021/11/20 08:28:06;;;;;;;10.70;7.65;;;11.00;99.90;;;;;;6178792;23;20163;-78
2021/11/20 08:30:32;;;;;;;12.03;8.00;;;10.90;99.90;;;;;;6151445;23;20238;-81
2021/11/20 08:32:59;;;;;;;12.27;8.03;;;10.90;99.90;;;;;;6151455;23;20222;-79
2021/11/20 08:35:26;;;;;;;12.83;9.00;;;10.90;99.90;;;;;;6178948;23;20158;-79
2021/11/20 08:37:52;;;;;;;11.57;8.43;;;10.90;99.90;;;;;;6177606;23;20170;-78
2021/11/20 08:40:22;;;;;;;11.73;8.50;;;10.90;99.90;;;;;;6152232;23;20183;-80
2021/11/20 08:42:47;;;;;;;13.60;8.47;;;10.90;99.90;;;;;;6178735;23;20160;-78
2021/11/20 08:45:16;;;;;;;10.38;8.60;;;10.90;99.90;;;;;;6178262;23;20229;-78
2021/11/20 08:47:43;;;;;;;11.50;9.07;;;10.90;99.90;;;;;;6179802;23;20602;-80
2021/11/20 08:50:12;;;;;;;13.27;9.40;;;10.90;99.90;;;;;;6169233;23;20178;-77
2021/11/20 08:52:39;;;;;;;13.03;9.27;;;10.90;99.90;;;;;;6151036;23;20174;-78
2021/11/20 08:55:05;;;;;;;12.30;8.90;;;10.80;99.90;;;;;;6177149;23;20178;-78
2021/11/20 08:57:31;;;;;;;16.95;9.95;;;10.90;99.90;;;;;;6151236;23;20671;-77
2021/11/20 08:59:57;;;;;;;14.20;8.97;;;10.90;99.90;;;;;;6170897;23;20198;-79
2021/11/20 09:02:29;;;;;;;13.95;10.55;;;10.80;99.90;;;;;;6170396;23;20186;-77
2021/11/20 09:05:04;;;;;;;11.63;9.67;;;10.70;99.90;;;;;;6152160;23;20147;-80
2021/11/20 09:07:41;;;;;;;14.53;9.67;;;10.70;99.90;;;;;;6177488;23;20162;-81
2021/11/20 09:10:18;;;;;;;15.27;10.40;;;10.70;99.90;;;;;;6151017;23;20198;-82
2021/11/20 09:12:47;;;;;;;13.70;10.40;;;10.70;99.90;;;;;;6150539;23;20642;-78
2021/11/20 09:15:39;;;;;;;14.23;10.73;;;10.70;99.90;;;;;;6151099;23;20495;-79
2021/11/20 09:18:05;;;;;;;14.43;10.80;;;10.70;99.90;;;;;;6148574;23;20155;-79
2021/11/20 09:20:31;;;;;;;13.50;10.17;;;10.70;99.90;;;;;;6177324;23;20250;-79
2021/11/20 09:22:57;;;;;;;15.50;11.17;;;10.70;99.90;;;;;;6151259;23;20151;-79
2021/11/20 09:25:23;;;;;;;15.53;10.57;;;10.70;99.90;;;;;;6177524;23;20142;-80
2021/11/20 09:27:50;;;;;;;15.40;10.10;;;10.70;99.90;;;;;;6151115;23;20190;-77
2021/11/20 09:30:20;;;;;;;15.40;10.87;;;10.70;99.90;;;;;;6177633;23;20171;-81
2021/11/20 09:32:46;;;;;;;15.27;10.77;;;10.70;99.90;;;;;;6150626;23;20183;-78
2021/11/20 09:35:11;;;;;;;13.23;10.27;;;10.70;99.90;;;;;;6177479;23;20209;-79
2021/11/20 09:37:37;;;;;;;14.33;9.97;;;10.70;99.90;;;;;;6151292;23;20154;-82
2021/11/20 09:40:06;;;;;;;15.60;11.60;;;10.80;99.90;;;;;;6151488;23;20178;-80
2021/11/20 09:42:43;;;;;;;13.75;10.27;;;10.70;99.90;;;;;;6152661;23;20243;-80
2021/11/20 09:45:18;;;;;;;13.67;10.13;;;10.80;99.90;;;;;;6150782;23;20821;-79
2021/11/20 09:47:50;;;;;;;15.03;11.07;;;10.80;99.90;;;;;;6149897;23;20241;-81
2021/11/20 09:50:29;;;;;;;15.17;11.47;;;10.90;99.90;;;;;;6149785;23;20238;-78
2021/11/20 09:52:55;;;;;;;18.57;10.33;;;10.90;99.90;;;;;;6149013;23;20183;-79
2021/11/20 09:55:28;;;;;;;12.90;9.93;;;11.00;99.90;;;;;;6148673;23;20263;-78
2021/11/20 09:58:21;;;;;;;15.27;10.07;;;11.00;99.90;;;;;;6149504;23;20195;-82
2021/11/20 10:01:29;;;;;;;17.63;11.13;;;11.00;99.90;;;;;;6132049;23;20246;-80
2021/11/20 10:04:08;;;;;;;15.03;10.87;;;11.00;99.90;;;;;;6150650;23;20163;-79
2021/11/20 10:06:46;;;;;;;13.93;10.13;;;11.10;99.90;;;;;;6150883;23;20623;-81
2021/11/20 10:09:28;;;;;;;14.18;10.95;;;11.10;99.90;;;;;;6150463;23;20248;-79
2021/11/20 10:12:14;;;;;;;14.15;11.90;;;11.10;99.90;;;;;;6150475;23;20576;-80
2021/11/20 10:14:51;;;;;;;14.50;10.70;;;11.10;99.90;;;;;;6150781;23;20147;-78
2021/11/20 10:17:34;;;;;;;17.03;11.40;;;11.20;99.90;;;;;;6151650;23;20181;-78
2021/11/20 10:20:27;;;;;;;13.77;10.55;;;11.30;99.90;;;;;;6148951;23;20181;-79
2021/11/20 10:23:02;;;;;;;14.52;10.48;;;11.30;99.90;;;;;;6177699;23;20217;-80
2021/11/20 10:26:13;;;;;;;12.80;10.18;;;11.40;99.90;;;;;;6151587;23;20501;-77
2021/11/20 10:29:03;;;;;;;13.90;10.57;;;11.50;99.90;;;;;;6151128;23;20178;-81
2021/11/20 10:31:37;;;;;;;12.88;10.13;;;11.50;99.90;;;;;;6150755;23;20183;-79
2021/11/20 10:34:14;;;;;;;13.15;10.05;;;11.60;99.90;;;;;;6151089;23;20533;-81
2021/11/20 10:36:48;;;;;;;13.25;10.23;;;11.60;99.90;;;;;;6151053;23;20174;-79
2021/11/20 10:39:19;;;;;;;12.02;9.75;;;11.70;99.90;;;;;;6150486;23;20576;-81
2021/11/20 10:41:56;;;;;;;13.20;10.05;;;11.70;99.90;;;;;;6176729;23;20143;-79
2021/11/20 10:44:29;;;;;;;13.25;10.27;;;11.70;99.90;;;;;;6178633;23;20198;-81
2021/11/20 10:47:26;;;;;;;13.55;10.55;;;11.70;99.90;;;;;;6151568;23;20202;-81
2021/11/20 10:50:20;;;;;;;13.23;10.02;;;11.80;99.90;;;;;;6177021;23;20204;-80
2021/11/20 10:53:18;;;;;;;12.73;9.38;;;11.70;99.90;;;;;;6177165;23;20195;-80
2021/11/20 10:56:02;;;;;;;14.13;10.20;;;11.70;99.90;;;;;;6176933;23;20146;-80
2021/11/20 10:58:34;;;;;;;12.77;10.23;;;11.60;99.90;;;;;;6149852;23;20221;-78
2021/11/20 11:01:15;;;;;;;12.55;9.05;;;11.70;99.90;;;;;;6151427;23;20494;-81
2021/11/20 11:03:44;;;;;;;11.30;9.75;;;11.80;99.90;;;;;;6150539;23;20150;-78
2021/11/20 11:06:38;;;;;;;18.17;11.45;;;11.90;99.90;;;;;;6178076;23;20547;-80
2021/11/20 11:09:16;;;;;;;12.23;10.35;;;11.90;99.90;;;;;;6152083;23;20174;-80
2021/11/20 11:11:53;;;;;;;11.43;8.95;;;11.90;99.90;;;;;;6153485;23;20155;-79
2021/11/20 11:14:21;;;;;;;12.95;9.45;;;11.90;99.90;;;;;;6153789;23;20163;-78
2021/11/20 11:17:01;;;;;;;14.77;12.10;;;11.90;99.90;;;;;;6151050;23;20238;-79
2021/11/20 11:19:53;;;;;;;13.15;9.35;;;11.90;99.90;;;;;;6152348;23;20143;-81
2021/11/20 11:22:38;;;;;;;13.88;9.15;;;11.90;99.90;;;;;;6177063;23;20599;-83
2021/11/20 11:25:11;;;;;;;9.98;8.13;;;12.00;99.90;;;;;;6151661;23;20281;-81
2021/11/20 11:28:07;;;;;;;11.63;8.77;;;12.10;99.90;;;;;;6176916;23;20162;-82
2021/11/20 11:30:49;;;;;;;9.43;8.23;;;12.10;99.90;;;;;;6176525;23;20179;-79
2021/11/20 11:33:16;;;;;;;9.60;8.60;;;12.00;99.90;;;;;;6176314;23;20219;-81
2021/11/20 11:36:16;;;;;;;10.43;8.13;;;12.00;99.90;;;;;;6176605;23;20572;-80
2021/11/20 11:38:56;;;;;;;9.07;7.68;;;12.00;99.90;;;;;;6176159;23;20489;-78
2021/11/20 11:41:46;;;;;;;10.20;8.30;;;11.90;99.90;;;;;;6152855;23;20569;-82
2021/11/20 11:44:48;;;;;;;8.98;7.68;;;11.90;99.90;;;;;;6151257;23;20214;-80
2021/11/20 11:47:46;;;;;;;8.38;7.47;;;11.90;99.90;;;;;;6150670;23;20595;-82
2021/11/20 11:50:45;;;;;;;8.82;7.40;;;11.80;99.90;;;;;;6096095;23;20631;-81
2021/11/20 11:53:26;;;;;;;9.32;6.85;;;11.90;99.90;;;;;;6082493;23;20318;-81
2021/11/20 11:55:58;;;;;;;8.07;7.00;;;11.90;99.90;;;;;;6177933;23;20150;-81
2021/11/20 11:58:30;;;;;;;8.02;6.78;;;12.00;99.90;;;;;;6150664;23;20159;-81
2021/11/20 12:01:13;;;;;;;8.55;7.30;;;12.00;99.90;;;;;;6175334;23;20349;-81
2021/11/20 12:03:45;;;;;;;7.93;6.88;;;12.00;99.90;;;;;;6177143;23;20139;-81
2021/11/20 12:06:13;;;;;;;6.47;5.78;;;12.10;99.90;;;;;;6176125;23;20159;-81
2021/11/20 12:08:54;;;;;;;7.95;6.00;;;12.00;99.90;;;;;;6179780;23;20143;-79
2021/11/20 12:11:29;;;;;;;6.82;6.03;;;11.90;99.90;;;;;;6150376;23;20265;-79
2021/11/20 12:14:15;;;;;;;6.25;5.65;;;11.90;99.90;;;;;;6151397;23;20645;-79
2021/11/20 12:16:52;;;;;;;7.28;5.55;;;11.80;99.90;;;;;;6078501;23;20155;-79
2021/11/20 12:19:52;;;;;;;6.63;5.63;;;11.80;99.90;;;;;;6178571;23;20368;-79
2021/11/20 12:22:33;;;;;;;6.88;5.63;;;11.80;99.90;;;;;;6179612;23;20483;-79
2021/11/20 12:25:26;;;;;;;7.82;5.57;;;11.80;99.90;;;;;;6151916;23;20155;-80
2021/11/20 12:28:03;;;;;;;5.60;5.00;;;11.70;99.90;;;;;;6124192;23;20166;-78
2021/11/20 12:30:54;;;;;;;7.00;5.43;;;11.70;99.90;;;;;;6148782;23;20190;-78
2021/11/20 12:33:27;;;;;;;5.80;4.83;;;11.70;99.90;;;;;;6174994;23;20611;-78
2021/11/20 12:36:11;;;;;;;5.20;4.70;;;11.70;99.90;;;;;;6175617;23;20461;-78
2021/11/20 12:38:55;;;;;;;5.60;4.67;;;11.70;99.90;;;;;;6175015;23;20359;-80
2021/11/20 12:41:24;;;;;;;5.35;4.70;;;11.70;99.90;;;;;;6148078;23;20179;-78
2021/11/20 12:44:14;;;;;;;6.20;4.90;;;11.70;99.90;;;;;;6150192;23;20583;-79
2021/11/20 12:46:58;;;;;;;5.80;4.78;;;11.70;99.90;;;;;;6179511;23;20174;-79
2021/11/20 12:49:26;;;;;;;5.53;4.85;;;11.60;99.90;;;;;;6178657;23;20221;-77
2021/11/20 12:52:26;;;;;;;5.18;4.68;;;11.60;99.90;;;;;;6152116;23;20175;-79
2021/11/20 12:54:54;;;;;;;5.88;4.82;;;11.60;99.90;;;;;;6177904;23;20434;-80
2021/11/20 12:57:28;;;;;;;6.15;4.93;;;11.50;99.90;;;;;;6148075;23;20246;-80
2021/11/20 13:00:09;;;;;;;4.82;4.32;;;11.50;99.90;;;;;;6173557;23;20422;-78
2021/11/20 13:02:37;;;;;;;5.32;4.43;;;11.50;99.90;;;;;;6149174;23;20155;-78
2021/11/20 13:05:37;;;;;;;4.28;3.80;;;11.40;99.90;;;;;;6175878;23;20483;-80
2021/11/20 13:08:22;;;;;;;4.45;4.05;;;11.40;99.90;;;;;;6184603;23;20178;-80